createdAt,value
2018-11-01T00:01:10.450Z,4.33
2018-11-01T00:03:14.678Z,5.10
2018-11-01T00:05:19.041Z,4.80
2018-11-01T00:07:23.283Z,4.63
2018-11-01T00:09:27.516Z,4.73
2018-11-01T00:11:31.758Z,4.53
2018-11-01T00:13:35.956Z,4.90
2018-11-01T00:15:40.164Z,4.03
2018-11-01T00:17:44.446Z,5.10
2018-11-01T00:19:48.693Z,5.40
2018-11-01T00:21:52.897Z,5.20
2018-11-01T00:23:57.166Z,4.80
2018-11-01T00:26:01.430Z,4.10
2018-11-01T00:28:05.729Z,4.40
2018-11-01T00:30:10.493Z,5.30
2018-11-01T00:32:14.711Z,5.00
2018-11-01T00:34:18.856Z,4.70
2018-11-01T00:36:23.098Z,4.40
2018-11-01T00:38:27.243Z,5.00
2018-11-01T00:40:31.504Z,4.80
2018-11-01T00:42:35.710Z,4.60
2018-11-01T00:44:39.999Z,4.50
2018-11-01T00:46:44.151Z,4.40
2018-11-01T00:48:48.420Z,4.40
2018-11-01T00:50:52.701Z,4.20
2018-11-01T00:52:56.906Z,4.13
2018-11-01T00:55:01.150Z,4.30
2018-11-01T00:57:05.750Z,4.43
2018-11-01T00:59:10.031Z,4.87
2018-11-01T01:01:14.246Z,4.37
2018-11-01T01:03:18.514Z,4.33
2018-11-01T01:05:22.740Z,4.03
2018-11-01T01:07:26.938Z,4.50
2018-11-01T01:09:31.126Z,4.37
2018-11-01T01:11:35.358Z,3.67
2018-11-01T01:13:39.571Z,4.10
2018-11-01T01:15:43.705Z,4.23
2018-11-01T01:17:47.927Z,4.30
2018-11-01T01:19:52.046Z,3.77
2018-11-01T01:21:56.252Z,4.07
2018-11-01T01:24:00.456Z,3.77
2018-11-01T01:26:04.730Z,4.50
2018-11-01T01:28:08.934Z,3.90
2018-11-01T01:30:16.423Z,4.33
2018-11-01T01:32:20.615Z,4.67
2018-11-01T01:34:24.865Z,4.00
2018-11-01T01:36:29.016Z,4.00
2018-11-01T01:38:33.264Z,4.20
2018-11-01T01:40:37.499Z,5.00
2018-11-01T01:42:46.999Z,4.40
2018-11-01T01:44:51.255Z,4.43
2018-11-01T01:46:55.475Z,4.97
2018-11-01T01:48:59.629Z,4.70
2018-11-01T01:51:03.844Z,5.30
2018-11-01T01:53:08.099Z,4.83
2018-11-01T01:55:12.370Z,4.80
2018-11-01T01:57:16.582Z,4.50
2018-11-01T01:59:20.864Z,4.67
2018-11-01T02:01:25.144Z,4.13
2018-11-01T02:03:29.334Z,4.53
2018-11-01T02:05:33.547Z,4.43
2018-11-01T02:07:37.743Z,4.50
2018-11-01T02:09:41.915Z,4.33
2018-11-01T02:11:46.218Z,4.23
2018-11-01T02:13:50.561Z,4.40
2018-11-01T02:15:54.840Z,4.93
2018-11-01T02:17:59.004Z,4.50
2018-11-01T02:20:03.224Z,4.30
2018-11-01T02:22:07.483Z,4.27
2018-11-01T02:24:11.955Z,4.30
2018-11-01T02:26:16.174Z,4.50
2018-11-01T02:28:20.386Z,4.37
2018-11-01T02:30:24.630Z,4.23
2018-11-01T02:32:28.858Z,4.90
2018-11-01T02:34:33.086Z,4.07
2018-11-01T02:36:37.314Z,4.47
2018-11-01T02:38:41.588Z,4.50
2018-11-01T02:40:45.734Z,4.60
2018-11-01T02:42:49.945Z,4.47
2018-11-01T02:44:54.160Z,4.37
2018-11-01T02:47:14.319Z,4.70
2018-11-01T02:49:31.789Z,4.70
2018-11-01T02:51:36.456Z,4.20
2018-11-01T02:53:40.621Z,4.47
2018-11-01T02:55:44.773Z,4.70
2018-11-01T02:57:49.025Z,4.50
2018-11-01T02:59:53.333Z,4.13
2018-11-01T03:01:57.481Z,4.83
2018-11-01T03:04:01.578Z,4.67
2018-11-01T03:06:06.149Z,4.80
2018-11-01T03:08:10.412Z,4.37
2018-11-01T03:10:15.365Z,4.50
2018-11-01T03:12:19.620Z,4.37
2018-11-01T03:14:23.824Z,3.87
2018-11-01T03:16:28.107Z,4.40
2018-11-01T03:18:32.313Z,4.17
2018-11-01T03:20:36.556Z,4.00
2018-11-01T03:22:40.775Z,4.63
2018-11-01T03:24:44.952Z,4.20
2018-11-01T03:26:49.183Z,3.47
2018-11-01T03:28:53.367Z,4.03
2018-11-01T03:30:57.642Z,3.67
2018-11-01T03:33:01.845Z,3.93
2018-11-01T03:35:06.496Z,4.20
2018-11-01T03:37:12.221Z,4.00
2018-11-01T03:39:16.591Z,4.23
2018-11-01T03:41:20.783Z,4.13
2018-11-01T03:43:25.677Z,3.97
2018-11-01T03:45:30.467Z,3.97
2018-11-01T03:47:34.917Z,3.90
2018-11-01T03:49:39.443Z,4.20
2018-11-01T03:51:44.591Z,4.00
2018-11-01T03:53:49.386Z,3.87
2018-11-01T03:55:53.536Z,3.80
2018-11-01T03:57:58.081Z,4.10
2018-11-01T04:00:02.520Z,3.90
2018-11-01T04:02:07.890Z,4.27
2018-11-01T04:04:12.095Z,3.90
2018-11-01T04:06:16.840Z,4.33
2018-11-01T04:08:21.553Z,3.80
2018-11-01T04:10:26.527Z,4.13
2018-11-01T04:12:30.861Z,4.20
2018-11-01T04:14:35.121Z,3.90
2018-11-01T04:16:39.455Z,3.63
2018-11-01T04:18:43.872Z,3.80
2018-11-01T04:20:48.132Z,3.70
2018-11-01T04:22:52.373Z,3.90
2018-11-01T04:24:56.621Z,3.90
2018-11-01T04:27:00.979Z,3.97
2018-11-01T04:29:05.423Z,3.40
2018-11-01T04:31:09.630Z,4.03
2018-11-01T04:33:13.880Z,3.93
2018-11-01T04:35:18.167Z,3.43
2018-11-01T04:37:22.508Z,4.33
2018-11-01T04:39:26.750Z,3.43
2018-11-01T04:41:30.997Z,3.50
2018-11-01T04:43:35.210Z,3.33
2018-11-01T04:45:39.302Z,3.80
2018-11-01T04:47:43.661Z,3.83
2018-11-01T04:49:47.735Z,4.00
2018-11-01T04:51:51.924Z,3.43
2018-11-01T04:53:56.169Z,4.07
2018-11-01T04:56:00.401Z,3.90
2018-11-01T04:58:04.669Z,2.70
2018-11-01T05:00:11.255Z,3.80
2018-11-01T05:02:15.488Z,3.67
2018-11-01T05:04:19.746Z,4.33
2018-11-01T05:06:23.975Z,4.40
2018-11-01T05:08:28.380Z,4.00
2018-11-01T05:10:32.653Z,3.97
2018-11-01T05:12:37.055Z,4.30
2018-11-01T05:14:41.217Z,3.43
2018-11-01T05:16:45.460Z,3.80
2018-11-01T05:18:49.759Z,3.80
2018-11-01T05:20:53.971Z,4.10
2018-11-01T05:22:58.157Z,4.20
2018-11-01T05:25:02.394Z,4.63
2018-11-01T05:27:06.737Z,3.97
2018-11-01T05:29:10.955Z,4.33
2018-11-01T05:31:15.193Z,4.43
2018-11-01T05:33:19.450Z,4.47
2018-11-01T05:35:23.710Z,3.80
2018-11-01T05:37:28.039Z,4.10
2018-11-01T05:39:32.226Z,3.77
2018-11-01T05:41:36.405Z,4.57
2018-11-01T05:43:40.644Z,3.87
2018-11-01T05:45:44.840Z,3.90
2018-11-01T05:47:49.097Z,3.87
2018-11-01T05:49:53.601Z,3.93
2018-11-01T05:51:57.823Z,4.37
2018-11-01T05:54:02.070Z,4.50
2018-11-01T05:56:06.441Z,4.23
2018-11-01T05:58:10.629Z,4.07
2018-11-01T06:00:14.916Z,4.50
2018-11-01T06:02:29.733Z,3.83
2018-11-01T06:04:34.018Z,4.10
2018-11-01T06:06:38.227Z,4.23
2018-11-01T06:08:43.491Z,3.57
2018-11-01T06:10:47.671Z,3.80
2018-11-01T06:12:51.895Z,4.33
2018-11-01T06:14:56.646Z,3.53
2018-11-01T06:17:00.904Z,4.67
2018-11-01T06:19:05.493Z,3.93
2018-11-01T06:21:10.267Z,4.53
2018-11-01T06:23:14.923Z,4.00
2018-11-01T06:25:19.782Z,4.40
2018-11-01T06:27:24.018Z,4.20
2018-11-01T06:29:28.238Z,4.30
2018-11-01T06:31:32.417Z,3.70
2018-11-01T06:33:36.610Z,4.37
2018-11-01T06:35:43.367Z,3.80
2018-11-01T06:37:47.600Z,4.17
2018-11-01T06:39:52.061Z,4.10
2018-11-01T06:41:56.200Z,4.30
2018-11-01T06:44:00.394Z,4.50
2018-11-01T06:46:04.559Z,4.47
2018-11-01T06:48:08.736Z,4.53
2018-11-01T06:50:12.981Z,4.30
2018-11-01T06:52:17.190Z,4.80
2018-11-01T06:54:21.398Z,4.23
2018-11-01T06:56:25.639Z,4.43
2018-11-01T06:58:30.005Z,4.10
2018-11-01T07:00:34.022Z,4.10
2018-11-01T07:02:38.254Z,4.80
2018-11-01T07:04:42.492Z,4.40
2018-11-01T07:06:46.735Z,4.40
2018-11-01T07:08:50.980Z,4.43
2018-11-01T07:10:55.162Z,4.60
2018-11-01T07:12:59.447Z,4.47
2018-11-01T07:15:03.679Z,3.40
2018-11-01T07:17:07.964Z,3.87
2018-11-01T07:19:12.307Z,3.40
2018-11-01T07:21:16.495Z,3.37
2018-11-01T07:23:20.774Z,4.40
2018-11-01T07:25:25.124Z,5.27
2018-11-01T07:27:29.691Z,5.10
2018-11-01T07:29:33.911Z,4.83
2018-11-01T07:31:38.084Z,4.90
2018-11-01T07:33:42.336Z,4.97
2018-11-01T07:35:46.548Z,4.13
2018-11-01T07:37:50.824Z,3.60
2018-11-01T07:39:55.019Z,3.93
2018-11-01T07:41:59.210Z,4.90
2018-11-01T07:44:03.613Z,4.50
2018-11-01T07:46:07.842Z,4.83
2018-11-01T07:48:12.053Z,4.23
2018-11-01T07:50:16.340Z,4.90
2018-11-01T07:52:20.532Z,4.33
2018-11-01T07:54:24.986Z,5.07
2018-11-01T07:56:29.214Z,4.37
2018-11-01T07:58:33.435Z,4.90
2018-11-01T08:00:37.666Z,4.50
2018-11-01T08:02:42.497Z,3.87
2018-11-01T08:04:46.646Z,4.27
2018-11-01T08:06:50.879Z,5.10
2018-11-01T08:08:55.070Z,4.50
2018-11-01T08:10:59.244Z,4.43
2018-11-01T08:13:03.459Z,4.23
2018-11-01T08:15:10.264Z,4.50
2018-11-01T08:17:14.557Z,3.43
2018-11-01T08:19:18.764Z,5.00
2018-11-01T08:21:23.104Z,3.13
2018-11-01T08:23:27.278Z,4.67
2018-11-01T08:25:31.449Z,4.93
2018-11-01T08:27:35.635Z,4.97
2018-11-01T08:29:39.846Z,5.27
2018-11-01T08:31:44.023Z,4.20
2018-11-01T08:33:48.222Z,4.83
2018-11-01T08:35:52.429Z,4.00
2018-11-01T08:37:56.654Z,4.60
2018-11-01T08:40:00.855Z,4.70
2018-11-01T08:42:05.107Z,5.33
2018-11-01T08:44:09.361Z,4.40
2018-11-01T08:46:13.576Z,5.00
2018-11-01T08:48:18.028Z,5.30
2018-11-01T08:50:22.308Z,4.87
2018-11-01T08:52:26.828Z,5.10
2018-11-01T08:54:32.234Z,3.47
2018-11-01T08:56:37.810Z,3.40
2018-11-01T08:58:42.026Z,2.97
2018-11-01T09:00:46.204Z,5.83
2018-11-01T09:02:50.386Z,2.93
2018-11-01T09:04:54.625Z,3.00
2018-11-01T09:06:58.835Z,3.07
2018-11-01T09:09:03.203Z,4.00
2018-11-01T09:11:07.469Z,5.27
2018-11-01T09:13:11.755Z,4.90
2018-11-01T09:15:17.031Z,3.60
2018-11-01T09:17:21.207Z,4.90
2018-11-01T09:19:26.866Z,4.70
2018-11-01T09:21:31.472Z,4.77
2018-11-01T09:23:35.649Z,4.30
2018-11-01T09:25:39.823Z,4.07
2018-11-01T09:27:44.100Z,4.67
2018-11-01T09:29:48.250Z,3.63
2018-11-01T09:31:52.450Z,4.10
2018-11-01T09:33:56.610Z,5.73
2018-11-01T09:36:00.855Z,3.37
2018-11-01T09:38:05.403Z,5.30
2018-11-01T09:40:10.951Z,5.03
2018-11-01T09:42:15.143Z,4.00
2018-11-01T09:44:19.394Z,3.90
2018-11-01T09:46:23.746Z,5.70
2018-11-01T09:48:27.770Z,4.03
2018-11-01T09:50:32.009Z,3.90
2018-11-01T09:52:36.178Z,4.90
2018-11-01T09:54:40.428Z,6.23
2018-11-01T09:56:44.604Z,4.77
2018-11-01T09:58:48.903Z,5.23
2018-11-01T10:00:53.206Z,5.07
2018-11-01T10:02:57.484Z,4.40
2018-11-01T10:05:01.792Z,3.20
2018-11-01T10:07:06.126Z,4.80
2018-11-01T10:09:10.923Z,5.20
2018-11-01T10:11:15.122Z,3.70
2018-11-01T10:13:19.344Z,4.13
2018-11-01T10:15:23.671Z,4.23
2018-11-01T10:17:28.235Z,4.63
2018-11-01T10:19:32.094Z,3.33
2018-11-01T10:21:36.243Z,4.77
2018-11-01T10:23:40.431Z,4.37
2018-11-01T10:25:44.591Z,4.57
2018-11-01T10:27:48.907Z,4.90
2018-11-01T10:29:53.015Z,4.10
2018-11-01T10:31:57.254Z,4.80
2018-11-01T10:34:01.568Z,3.77
2018-11-01T10:36:06.311Z,4.17
2018-11-01T10:38:10.505Z,3.63
2018-11-01T10:40:16.005Z,2.80
2018-11-01T10:42:20.275Z,2.97
2018-11-01T10:44:24.495Z,2.50
2018-11-01T10:46:28.709Z,2.40
2018-11-01T10:48:32.951Z,2.87
2018-11-01T10:50:37.189Z,4.53
2018-11-01T10:52:41.584Z,4.33
2018-11-01T10:54:45.807Z,3.63
2018-11-01T10:56:50.115Z,4.10
2018-11-01T10:58:54.263Z,5.30
2018-11-01T11:01:03.771Z,5.23
2018-11-01T11:03:08.105Z,3.20
2018-11-01T11:05:12.330Z,3.67
2018-11-01T11:07:16.598Z,3.20
2018-11-01T11:09:20.778Z,4.50
2018-11-01T11:11:24.994Z,4.30
2018-11-01T11:13:29.226Z,4.30
2018-11-01T11:15:33.424Z,3.60
2018-11-01T11:17:37.889Z,3.50
2018-11-01T11:19:42.383Z,3.90
2018-11-01T11:21:46.598Z,4.07
2018-11-01T11:23:51.685Z,2.80
2018-11-01T11:25:55.875Z,3.43
2018-11-01T11:28:00.175Z,3.30
2018-11-01T11:30:04.646Z,5.17
2018-11-01T11:32:08.888Z,2.80
2018-11-01T11:34:13.159Z,3.67
2018-11-01T11:36:17.462Z,4.90
2018-11-01T11:38:21.727Z,2.50
2018-11-01T11:40:25.951Z,4.63
2018-11-01T11:42:30.160Z,3.10
2018-11-01T11:44:34.377Z,2.80
2018-11-01T11:46:38.747Z,4.63
2018-11-01T11:48:43.018Z,2.83
2018-11-01T11:50:47.243Z,3.90
2018-11-01T11:52:51.433Z,3.30
2018-11-01T11:54:55.666Z,3.40
2018-11-01T11:56:59.870Z,3.30
2018-11-01T11:59:04.324Z,3.27
2018-11-01T12:01:08.527Z,4.23
2018-11-01T12:03:12.703Z,5.47
2018-11-01T12:05:17.037Z,2.97
2018-11-01T12:07:21.282Z,2.60
2018-11-01T12:09:25.746Z,3.80
2018-11-01T12:11:29.892Z,3.43
2018-11-01T12:13:34.068Z,3.70
2018-11-01T12:15:38.242Z,3.00
2018-11-01T12:17:42.469Z,2.93
2018-11-01T12:19:46.650Z,3.03
2018-11-01T12:21:50.972Z,5.20
2018-11-01T12:23:55.262Z,3.60
2018-11-01T12:25:59.505Z,5.57
2018-11-01T12:28:03.696Z,3.83
2018-11-01T12:30:09.252Z,4.73
2018-11-01T12:32:13.570Z,3.70
2018-11-01T12:34:20.442Z,4.77
2018-11-01T12:36:24.718Z,3.57
2018-11-01T12:38:28.975Z,4.93
2018-11-01T12:40:33.179Z,4.97
2018-11-01T12:42:37.365Z,4.60
2018-11-01T12:44:41.713Z,4.53
2018-11-01T12:46:45.950Z,3.97
2018-11-01T12:48:50.197Z,5.60
2018-11-01T12:50:54.438Z,4.93
2018-11-01T12:52:58.634Z,4.67
2018-11-01T12:55:02.855Z,4.53
2018-11-01T12:57:07.143Z,5.37
2018-11-01T12:59:11.579Z,5.50
2018-11-01T13:01:16.747Z,4.60
2018-11-01T13:03:22.139Z,5.80
2018-11-01T13:05:26.405Z,4.60
2018-11-01T13:07:30.626Z,5.90
2018-11-01T13:09:34.808Z,4.87
2018-11-01T13:11:39.002Z,4.60
2018-11-01T13:13:43.243Z,3.37
2018-11-01T13:15:47.474Z,2.87
2018-11-01T13:17:51.722Z,4.90
2018-11-01T13:19:56.006Z,5.00
2018-11-01T13:22:01.413Z,5.80
2018-11-01T13:24:05.931Z,4.67
2018-11-01T13:26:10.128Z,5.57
2018-11-01T13:28:14.359Z,5.90
2018-11-01T13:30:18.575Z,5.67
2018-11-01T13:32:23.086Z,5.40
2018-11-01T13:34:27.427Z,4.23
2018-11-01T13:36:31.738Z,4.23
2018-11-01T13:38:35.900Z,5.57
2018-11-01T13:40:40.399Z,5.50
2018-11-01T13:42:44.351Z,4.23
2018-11-01T13:44:48.565Z,4.63
2018-11-01T13:46:52.794Z,5.00
2018-11-01T13:48:57.031Z,4.77
2018-11-01T13:51:01.258Z,5.83
2018-11-01T13:53:05.968Z,5.70
2018-11-01T13:55:11.443Z,4.87
2018-11-01T13:57:15.639Z,4.17
2018-11-01T13:59:19.894Z,5.73
2018-11-01T14:01:24.109Z,5.80
2018-11-01T14:03:28.420Z,6.83
2018-11-01T14:05:32.678Z,7.03
2018-11-01T14:07:36.862Z,5.77
2018-11-01T14:09:41.132Z,5.90
2018-11-01T14:11:45.307Z,5.90
2018-11-01T14:13:49.957Z,6.07
2018-11-01T14:15:53.988Z,6.37
2018-11-01T14:17:58.270Z,5.73
2018-11-01T14:20:02.526Z,3.63
2018-11-01T14:22:06.744Z,5.63
2018-11-01T14:24:11.003Z,6.50
2018-11-01T14:26:15.445Z,4.33
2018-11-01T14:28:19.647Z,3.57
2018-11-01T14:30:23.911Z,4.67
2018-11-01T14:32:28.135Z,4.80
2018-11-01T14:34:32.372Z,4.43
2018-11-01T14:36:36.582Z,4.07
2018-11-01T14:38:40.890Z,3.20
2018-11-01T14:40:45.334Z,3.53
2018-11-01T14:42:49.491Z,5.00
2018-11-01T14:44:53.707Z,3.57
2018-11-01T14:46:58.013Z,4.50
2018-11-01T14:49:02.197Z,3.00
2018-11-01T14:51:06.787Z,6.10
2018-11-01T14:53:11.171Z,4.50
2018-11-01T14:55:16.484Z,4.93
2018-11-01T14:57:21.034Z,5.27
2018-11-01T14:59:25.350Z,4.37
2018-11-01T15:01:28.114Z,6.07
2018-11-01T15:03:32.473Z,5.30
2018-11-01T15:05:36.759Z,4.30
2018-11-01T15:07:40.996Z,5.90
2018-11-01T15:09:45.167Z,6.67
2018-11-01T15:11:49.379Z,6.77
2018-11-01T15:13:53.607Z,6.27
2018-11-01T15:15:57.824Z,3.80
2018-11-01T15:18:02.001Z,12.13
2018-11-01T15:20:06.511Z,8.93
2018-11-01T15:22:10.658Z,7.90
2018-11-01T15:24:14.858Z,4.67
2018-11-01T15:26:19.259Z,4.40
2018-11-01T15:28:23.372Z,6.70
2018-11-01T15:30:27.602Z,5.40
2018-11-01T15:32:31.802Z,4.83
2018-11-01T15:34:36.103Z,5.27
2018-11-01T15:36:40.331Z,5.07
2018-11-01T15:38:44.534Z,7.87
2018-11-01T15:40:52.831Z,3.93
2018-11-01T15:42:57.042Z,4.20
2018-11-01T15:45:01.234Z,5.73
2018-11-01T15:47:05.498Z,5.93
2018-11-01T15:49:09.682Z,5.73
2018-11-01T15:51:13.899Z,6.83
2018-11-01T15:53:18.218Z,4.67
2018-11-01T15:55:22.464Z,5.80
2018-11-01T15:57:26.738Z,4.10
2018-11-01T15:59:30.979Z,6.60
2018-11-01T16:01:35.182Z,6.43
2018-11-01T16:03:39.413Z,8.10
2018-11-01T16:05:43.601Z,7.67
2018-11-01T16:07:47.786Z,8.00
2018-11-01T16:09:51.965Z,7.27
2018-11-01T16:11:56.138Z,7.33
2018-11-01T16:14:00.407Z,7.50
2018-11-01T16:16:04.686Z,7.57
2018-11-01T16:18:08.840Z,7.53
2018-11-01T16:20:13.172Z,7.70
2018-11-01T16:22:17.445Z,8.23
2018-11-01T16:24:21.746Z,7.80
2018-11-01T16:26:25.890Z,8.37
2018-11-01T16:28:30.237Z,7.23
2018-11-01T16:30:34.389Z,7.27
2018-11-01T16:32:38.546Z,8.10
2018-11-01T16:34:42.850Z,7.37
2018-11-01T16:36:47.137Z,7.83
2018-11-01T16:38:51.260Z,7.43
2018-11-01T16:40:55.482Z,7.33
2018-11-01T16:42:59.720Z,9.43
2018-11-01T16:45:03.996Z,7.33
2018-11-01T16:47:08.283Z,6.20
2018-11-01T16:49:12.512Z,5.70
2018-11-01T16:51:16.683Z,6.50
2018-11-01T16:53:20.918Z,5.30
2018-11-01T16:55:25.175Z,5.60
2018-11-01T16:57:29.331Z,4.27
2018-11-01T16:59:33.517Z,7.60
2018-11-01T17:01:37.778Z,7.50
2018-11-01T17:03:42.128Z,5.30
2018-11-01T17:05:46.415Z,6.90
2018-11-01T17:07:50.584Z,5.77
2018-11-01T17:09:54.765Z,6.97
2018-11-01T17:11:58.954Z,5.03
2018-11-01T17:14:03.202Z,5.50
2018-11-01T17:16:08.178Z,5.87
2018-11-01T17:18:12.419Z,6.57
2018-11-01T17:20:16.582Z,6.83
2018-11-01T17:22:20.863Z,5.50
2018-11-01T17:24:29.434Z,7.13
2018-11-01T17:26:33.670Z,5.93
2018-11-01T17:28:37.950Z,5.70
2018-11-01T17:33:09.698Z,7.03
2018-11-01T17:35:14.303Z,7.00
2018-11-01T17:37:18.552Z,5.50
2018-11-01T17:39:22.770Z,7.10
2018-11-01T17:41:26.959Z,7.17
2018-11-01T17:43:31.256Z,7.93
2018-11-01T17:45:35.553Z,7.87
2018-11-01T17:47:39.980Z,6.67
2018-11-01T17:49:44.250Z,7.60
2018-11-01T17:51:48.868Z,7.27
2018-11-01T17:53:53.085Z,8.13
2018-11-01T17:55:58.271Z,6.50
2018-11-01T17:58:02.624Z,8.17
2018-11-01T18:00:24.968Z,7.90
2018-11-01T18:02:29.487Z,8.57
2018-11-01T18:04:33.787Z,8.07
2018-11-01T18:06:38.205Z,6.47
2018-11-01T18:08:42.560Z,6.93
2018-11-01T18:10:46.939Z,7.57
2018-11-01T18:12:51.386Z,7.77
2018-11-01T18:14:55.768Z,7.00
2018-11-01T18:17:00.225Z,5.27
2018-11-01T18:19:04.785Z,8.53
2018-11-01T18:21:09.285Z,5.77
2018-11-01T18:23:13.727Z,5.53
2018-11-01T18:25:18.389Z,7.33
2018-11-01T18:27:22.858Z,7.47
2018-11-01T18:29:27.212Z,8.70
2018-11-01T18:33:58.699Z,8.43
2018-11-01T18:36:03.203Z,6.57
2018-11-01T18:38:07.892Z,8.87
2018-11-01T18:40:23.812Z,9.27
2018-11-01T18:42:28.100Z,8.03
2018-11-01T18:44:47.667Z,9.20
2018-11-01T18:46:52.128Z,7.60
2018-11-01T18:48:56.578Z,8.63
2018-11-01T18:51:00.994Z,10.60
2018-11-01T18:53:05.424Z,9.47
2018-11-01T18:55:11.120Z,8.27
2018-11-01T18:57:15.557Z,10.30
2018-11-01T18:59:19.950Z,10.63
2018-11-01T19:01:24.340Z,9.50
2018-11-01T19:03:30.396Z,7.43
2018-11-01T19:05:34.940Z,9.93
2018-11-01T19:07:39.360Z,9.80
2018-11-01T19:09:43.637Z,8.67
2018-11-01T19:11:47.984Z,10.43
2018-11-01T19:13:52.632Z,9.40
2018-11-01T19:15:56.838Z,9.90
2018-11-01T19:18:01.174Z,10.63
2018-11-01T19:20:06.465Z,7.23
2018-11-01T19:22:10.869Z,10.97
2018-11-01T19:24:15.256Z,6.90
2018-11-01T19:26:19.740Z,9.80
2018-11-01T19:28:24.158Z,7.53
2018-11-01T19:30:28.538Z,8.53
2018-11-01T19:32:32.896Z,6.70
2018-11-01T19:34:37.593Z,9.80
2018-11-01T19:36:41.963Z,6.43
2018-11-01T19:38:46.443Z,6.10
2018-11-01T19:40:50.786Z,5.50
2018-11-01T19:42:55.169Z,9.50
2018-11-01T19:44:59.622Z,9.37
2018-11-01T19:47:04.124Z,7.10
2018-11-01T19:49:12.687Z,6.43
2018-11-01T19:51:17.351Z,9.27
2018-11-01T19:53:21.723Z,8.60
2018-11-01T19:55:26.736Z,9.70
2018-11-01T19:57:31.098Z,11.10
2018-11-01T19:59:48.082Z,7.27
2018-11-01T20:01:52.508Z,6.33
2018-11-01T20:03:57.032Z,7.50
2018-11-01T20:06:02.614Z,6.60
2018-11-01T20:08:07.497Z,6.97
2018-11-01T20:10:13.389Z,5.50
2018-11-01T20:12:29.186Z,8.53
2018-11-01T20:14:33.595Z,10.83
2018-11-01T20:16:39.774Z,10.57
2018-11-01T20:18:44.780Z,5.43
2018-11-01T20:20:49.217Z,7.17
2018-11-01T20:22:53.611Z,7.93
2018-11-01T20:24:57.911Z,9.10
2018-11-01T20:27:02.435Z,8.33
2018-11-01T20:29:07.420Z,8.77
2018-11-01T20:31:11.843Z,7.13
2018-11-01T20:33:16.241Z,6.80
2018-11-01T20:35:20.659Z,8.00
2018-11-01T20:37:24.991Z,9.30
2018-11-01T20:39:29.267Z,8.97
2018-11-01T20:41:33.703Z,11.90
2018-11-01T20:43:38.160Z,8.13
2018-11-01T20:45:42.839Z,7.50
2018-11-01T20:47:47.557Z,7.70
2018-11-01T20:50:02.553Z,7.30
2018-11-01T20:52:07.047Z,5.80
2018-11-01T20:54:11.370Z,6.97
2018-11-01T20:56:15.756Z,9.13
2018-11-01T20:58:20.137Z,8.87
2018-11-01T21:00:24.553Z,7.37
2018-11-01T21:02:28.881Z,8.13
2018-11-01T21:04:33.231Z,6.30
2018-11-01T21:06:37.621Z,9.23
2018-11-01T21:08:41.924Z,7.33
2018-11-01T21:10:46.460Z,9.10
2018-11-01T21:12:50.858Z,6.53
2018-11-01T21:14:58.407Z,6.43
2018-11-01T21:17:05.680Z,8.60
2018-11-01T21:19:10.050Z,6.40
2018-11-01T21:21:14.435Z,6.83
2018-11-01T21:23:18.819Z,6.67
2018-11-01T21:25:23.364Z,8.53
2018-11-01T21:27:27.713Z,7.73
2018-11-01T21:29:32.255Z,5.30
2018-11-01T21:31:36.551Z,6.77
2018-11-01T21:33:40.932Z,6.17
2018-11-01T21:35:45.393Z,6.17
2018-11-01T21:37:49.696Z,7.17
2018-11-01T21:39:54.112Z,7.10
2018-11-01T21:41:58.650Z,8.83
2018-11-01T21:44:03.023Z,7.10
2018-11-01T21:46:07.411Z,8.00
2018-11-01T21:48:11.819Z,8.47
2018-11-01T21:50:16.204Z,6.27
2018-11-01T21:52:20.594Z,7.77
2018-11-01T21:54:24.976Z,6.23
2018-11-01T21:56:29.414Z,5.53
2018-11-01T22:01:23.020Z,8.90
2018-11-01T22:03:34.549Z,6.73
2018-11-01T22:05:40.979Z,6.13
2018-11-01T22:07:47.847Z,5.80
2018-11-01T22:09:54.168Z,7.07
2018-11-01T22:12:00.166Z,8.57
2018-11-01T22:14:05.501Z,8.17
2018-11-01T22:16:12.322Z,5.47
2018-11-01T22:18:18.743Z,6.43
2018-11-01T22:20:23.029Z,6.00
2018-11-01T22:22:47.355Z,5.90
2018-11-01T22:24:53.441Z,4.97
2018-11-01T22:27:00.414Z,7.23
2018-11-01T22:29:06.506Z,7.37
2018-11-01T22:31:16.338Z,7.90
2018-11-01T22:33:24.080Z,9.70
2018-11-01T22:35:30.589Z,10.77
2018-11-01T22:37:36.526Z,7.63
2018-11-01T22:39:41.603Z,5.80
2018-11-01T22:41:48.802Z,7.57
2018-11-01T22:43:53.572Z,6.10
2018-11-01T22:46:00.419Z,8.30
2018-11-01T22:48:06.643Z,9.70
2018-11-01T22:50:19.556Z,9.90
2018-11-01T22:52:24.922Z,8.23
2018-11-01T22:54:33.640Z,7.37
2018-11-01T22:56:40.044Z,6.70
2018-11-01T22:58:46.983Z,11.47
2018-11-01T23:00:52.164Z,7.40
2018-11-01T23:02:56.418Z,8.73
2018-11-01T23:05:26.595Z,8.37
2018-11-01T23:07:58.336Z,10.20
2018-11-01T23:10:08.020Z,8.07
2018-11-01T23:12:14.045Z,7.47
2018-11-01T23:14:22.250Z,8.53
2018-11-01T23:16:29.833Z,9.97
2018-11-01T23:18:53.375Z,7.83
2018-11-01T23:21:01.929Z,8.20
2018-11-01T23:25:51.345Z,7.87
2018-11-01T23:27:59.285Z,7.60
2018-11-01T23:30:07.214Z,6.20
2018-11-01T23:32:13.250Z,7.30
2018-11-01T23:34:20.815Z,7.57
2018-11-01T23:36:26.093Z,8.00
2018-11-01T23:38:37.062Z,7.10
2018-11-01T23:40:46.655Z,6.47
2018-11-01T23:42:56.030Z,7.30
2018-11-01T23:45:05.309Z,8.70
2018-11-01T23:47:14.803Z,8.63
2018-11-01T23:49:23.447Z,7.17
2018-11-01T23:51:27.731Z,7.00
2018-11-01T23:53:34.116Z,6.30
2018-11-01T23:56:01.143Z,7.10
2018-11-01T23:58:11.026Z,8.40
